Time;durP1;ratioP1;P1;durP2;ratioP2;P2;SDS_P1;SDS_P2;PMS_P1;PMS_P2;Temp;Humidity;BMP_temperature;BMP_pressure;BME280_temperature;BME280_humidity;BME280_pressure;Samples;Min_cycle;Max_cycle;Signal;HPM_P1;HPM_P2
2022/04/17 00:01:03;;;;;;;4.28;2.38;;;;;;;7.13;79.17;103172.44;5112282;28;20047;-26
2022/04/17 00:03:31;;;;;;;4.20;2.38;;;;;;;7.12;79.02;103176.28;5112570;28;20048;-27
2022/04/17 00:05:59;;;;;;;3.78;2.20;;;;;;;7.13;79.34;103168.78;5112677;28;20039;-26
2022/04/17 00:08:27;;;;;;;4.43;2.67;;;;;;;7.11;78.79;103159.84;5110623;28;20047;-26
2022/04/17 00:10:55;;;;;;;4.45;2.17;;;;;;;7.11;79.17;103165.38;5112723;28;20048;-26
2022/04/17 00:13:25;;;;;;;3.40;2.28;;;;;;;7.11;78.89;103157.06;5112287;28;20058;-26
2022/04/17 00:15:53;;;;;;;4.38;2.78;;;;;;;7.11;78.76;103157.06;5111093;28;20047;-27
2022/04/17 00:18:21;;;;;;;5.20;3.13;;;;;;;7.12;78.63;103151.28;5112415;28;20591;-26
2022/04/17 00:20:49;;;;;;;4.38;2.80;;;;;;;7.13;78.51;103150.22;5112245;28;20155;-26
2022/04/17 00:23:17;;;;;;;4.80;2.63;;;;;;;7.15;78.24;103156.41;5110558;28;20503;-27
2022/04/17 00:25:45;;;;;;;4.75;2.80;;;;;;;7.15;77.63;103153.63;5112122;28;20059;-25
2022/04/17 00:28:12;;;;;;;4.25;2.70;;;;;;;7.16;77.60;103155.34;5112427;28;20108;-26
2022/04/17 00:30:41;;;;;;;6.40;3.30;;;;;;;7.16;77.83;103137.81;5111593;28;20055;-33
2022/04/17 00:33:09;;;;;;;4.13;2.47;;;;;;;7.16;77.35;103138.66;5112076;28;20387;-29
2022/04/17 00:35:43;;;;;;;3.65;2.20;;;;;;;7.17;76.93;103136.75;5111572;28;20095;-29
2022/04/17 00:38:11;;;;;;;5.40;2.47;;;;;;;7.15;77.19;103136.97;5112597;28;20461;-28
2022/04/17 00:40:39;;;;;;;3.92;2.20;;;;;;;7.12;76.82;103131.84;5112128;28;20112;-30
2022/04/17 00:43:21;;;;;;;4.05;2.17;;;;;;;7.08;76.81;103125.03;5111384;28;20150;-25
2022/04/17 00:45:51;;;;;;;4.63;2.45;;;;;;;7.03;77.08;103118.44;5112197;28;20047;-28
2022/04/17 00:48:19;;;;;;;3.55;2.13;;;;;;;6.99;77.23;103122.75;5112465;28;20248;-30
2022/04/17 00:50:47;;;;;;;3.92;2.10;;;;;;;6.95;77.12;103111.22;5115407;28;20063;-29
2022/04/17 00:53:15;;;;;;;3.00;1.80;;;;;;;6.92;77.25;103119.97;5116143;28;20396;-31
2022/04/17 00:55:43;;;;;;;3.15;2.30;;;;;;;6.87;77.61;103115.09;5116330;28;20298;-28
2022/04/17 00:58:11;;;;;;;3.97;2.17;;;;;;;6.84;77.57;103111.88;5115466;28;20040;-26
2022/04/17 01:00:40;;;;;;;3.13;1.95;;;;;;;6.82;77.69;103114.03;5115992;28;20515;-27
2022/04/17 01:03:10;;;;;;;5.75;2.53;;;;;;;6.79;77.80;103120.03;5116071;28;20036;-28
2022/04/17 01:05:42;;;;;;;4.05;2.45;;;;;;;6.77;78.07;103114.72;5115546;28;20052;-27
2022/04/17 01:08:10;;;;;;;3.75;1.95;;;;;;;6.73;77.92;103115.34;5116317;28;20051;-29
2022/04/17 01:10:38;;;;;;;3.65;2.35;;;;;;;6.68;78.22;103115.16;5116075;28;20048;-27
2022/04/17 01:13:08;;;;;;;2.95;1.80;;;;;;;6.63;78.39;103115.78;5114108;28;20048;-28
2022/04/17 01:15:37;;;;;;;5.00;2.00;;;;;;;6.57;78.57;103106.44;5115631;28;20048;-26
2022/04/17 01:18:05;;;;;;;3.08;2.03;;;;;;;6.53;78.68;103107.09;5111534;28;20043;-26
2022/04/17 01:20:34;;;;;;;3.30;2.00;;;;;;;6.47;78.98;103103.25;5115693;28;20047;-26
2022/04/17 01:28:34;;;;;;;3.00;2.10;;;;;;;6.31;79.88;103094.56;5115951;28;20050;-26
2022/04/17 01:31:03;;;;;;;4.18;2.35;;;;;;;6.28;80.33;103090.28;5115568;28;20050;-28
2022/04/17 01:33:31;;;;;;;4.13;2.90;;;;;;;6.26;80.67;103092.41;5115039;28;20047;-26
2022/04/17 01:35:59;;;;;;;5.00;3.17;;;;;;;6.26;80.78;103092.41;5115594;28;20047;-27
2022/04/17 01:38:28;;;;;;;5.47;3.30;;;;;;;6.27;80.96;103077.50;5115507;28;20456;-26
2022/04/17 01:40:56;;;;;;;6.88;3.25;;;;;;;6.28;81.79;103084.75;5114833;28;20056;-27
2022/04/17 01:43:23;;;;;;;4.78;3.42;;;;;;;6.32;81.34;103087.94;5115340;27;20077;-33
2022/04/17 01:45:51;;;;;;;5.10;3.28;;;;;;;6.35;81.31;103085.59;5115495;28;20122;-27
2022/04/17 01:48:19;;;;;;;5.90;3.53;;;;;;;6.40;81.23;103080.22;5114570;28;20074;-27
2022/04/17 01:50:47;;;;;;;5.63;3.35;;;;;;;6.47;80.79;103091.31;5115278;28;20055;-26
2022/04/17 01:53:15;;;;;;;4.20;3.33;;;;;;;6.52;80.15;103083.19;5114150;28;20040;-26
2022/04/17 01:55:44;;;;;;;5.45;3.28;;;;;;;6.55;79.62;103080.84;5115349;28;20043;-26
2022/04/17 01:58:11;;;;;;;4.88;3.40;;;;;;;6.57;79.45;103084.25;5115130;28;20043;-27
2022/04/17 02:00:39;;;;;;;5.40;3.30;;;;;;;6.61;78.82;103083.78;5113396;28;20527;-26
2022/04/17 02:03:07;;;;;;;6.13;3.50;;;;;;;6.63;78.83;103081.66;5114975;28;20040;-26
2022/04/17 02:05:34;;;;;;;4.63;3.10;;;;;;;6.64;78.52;103084.22;5114949;28;20036;-29
2022/04/17 02:08:02;;;;;;;7.03;4.07;;;;;;;6.67;78.00;103089.31;5095623;28;20044;-28
2022/04/17 02:10:30;;;;;;;5.10;3.30;;;;;;;6.71;77.68;103084.19;5115024;28;20044;-27
2022/04/17 02:13:00;;;;;;;5.72;2.85;;;;;;;6.74;77.37;103086.53;5114588;28;20563;-26
2022/04/17 02:15:28;;;;;;;5.65;3.30;;;;;;;6.73;77.44;103087.59;5103373;28;20047;-27
2022/04/17 02:17:55;;;;;;;4.63;2.80;;;;;;;6.76;76.95;103087.19;5111106;28;20127;-28
2022/04/17 02:20:23;;;;;;;4.45;2.90;;;;;;;6.79;76.76;103078.41;5114641;28;20051;-29
2022/04/17 02:22:52;;;;;;;5.05;3.25;;;;;;;6.80;76.64;103080.94;5113772;28;20039;-28
2022/04/17 02:25:20;;;;;;;6.25;3.63;;;;;;;6.83;76.48;103074.09;5111170;28;20096;-26
2022/04/17 02:27:47;;;;;;;5.30;3.58;;;;;;;6.85;76.64;103071.97;5114479;28;20046;-27
2022/04/17 02:30:16;;;;;;;4.85;3.40;;;;;;;6.86;76.17;103070.91;5113629;28;20036;-26
2022/04/17 02:32:44;;;;;;;5.40;3.80;;;;;;;6.86;76.12;103071.75;5114233;28;20515;-27
2022/04/17 02:35:12;;;;;;;4.78;3.40;;;;;;;6.86;76.39;103071.75;5114075;28;20048;-27
2022/04/17 02:37:39;;;;;;;4.82;3.38;;;;;;;6.86;76.53;103068.97;5114463;28;20055;-27
2022/04/17 02:40:08;;;;;;;7.10;3.78;;;;;;;6.85;76.55;103067.28;5113984;28;20063;-27
2022/04/17 02:42:36;;;;;;;6.78;3.85;;;;;;;6.85;76.29;103069.19;5112066;28;20062;-27
2022/04/17 02:45:04;;;;;;;4.60;3.28;;;;;;;6.84;77.23;103067.47;5114190;28;20075;-27
2022/04/17 02:47:46;;;;;;;5.55;3.60;;;;;;;6.83;77.06;103060.22;5113999;28;20047;-25
2022/04/17 02:50:17;;;;;;;4.70;3.05;;;;;;;6.82;77.30;103061.31;5113686;27;20051;-27
2022/04/17 02:52:46;;;;;;;6.72;4.10;;;;;;;6.81;77.33;103054.03;5113996;28;20085;-27
2022/04/17 02:55:13;;;;;;;5.57;3.45;;;;;;;6.78;77.42;103055.38;5112793;28;20504;-29
2022/04/17 02:57:41;;;;;;;7.70;4.07;;;;;;;6.80;77.63;103049.56;5113070;27;20461;-30
2022/04/17 03:00:10;;;;;;;5.35;2.90;;;;;;;6.80;77.89;103049.56;5114044;28;20420;-26
2022/04/17 03:05:38;;;;;;;6.57;3.45;;;;;;;6.78;78.42;103049.81;5113190;28;20082;-26
2022/04/17 03:08:08;;;;;;;5.90;3.67;;;;;;;6.81;78.22;103042.94;5113760;28;20040;-25
2022/04/17 03:10:37;;;;;;;6.00;3.50;;;;;;;6.79;78.40;103039.56;5113123;28;20047;-26
2022/04/17 03:13:05;;;;;;;5.03;3.78;;;;;;;6.79;78.73;103050.66;5113709;28;20139;-26
2022/04/17 03:15:34;;;;;;;6.82;4.05;;;;;;;6.77;78.79;103042.56;5113717;27;20039;-27
2022/04/17 03:18:03;;;;;;;6.07;3.92;;;;;;;6.77;79.18;103033.38;5112813;28;20043;-26
2022/04/17 03:20:31;;;;;;;6.88;3.33;;;;;;;6.75;79.32;103041.06;5113520;28;20446;-28
2022/04/17 03:22:59;;;;;;;5.03;3.17;;;;;;;6.74;79.90;103020.81;5113719;28;20090;-25
2022/04/17 03:25:27;;;;;;;5.85;3.60;;;;;;;6.74;79.71;103033.81;5112838;28;20059;-26
2022/04/17 03:27:55;;;;;;;5.88;3.60;;;;;;;6.73;80.24;103032.13;5113295;28;20052;-26
2022/04/17 03:30:22;;;;;;;7.13;3.83;;;;;;;6.71;80.46;103025.94;5113291;28;20419;-26
2022/04/17 03:32:51;;;;;;;6.28;3.50;;;;;;;6.71;80.61;103020.38;5112545;28;20039;-26
2022/04/17 03:35:20;;;;;;;4.57;3.30;;;;;;;6.70;80.45;103027.84;5112980;28;20412;-26
2022/04/17 03:37:48;;;;;;;5.25;3.65;;;;;;;6.69;80.48;103020.59;5113417;28;20489;-27
2022/04/17 03:40:17;;;;;;;6.43;4.03;;;;;;;6.67;80.93;103017.19;5112254;28;20059;-27
2022/04/17 03:42:45;;;;;;;6.35;3.00;;;;;;;6.66;81.09;103014.63;5112234;28;20135;-27
2022/04/17 03:45:14;;;;;;;5.70;3.53;;;;;;;6.63;81.29;103018.69;5113536;28;20052;-27
2022/04/17 03:47:42;;;;;;;5.78;3.63;;;;;;;6.61;81.23;103011.66;5112056;28;20047;-25
2022/04/17 03:50:11;;;;;;;6.18;3.67;;;;;;;6.61;81.56;103006.13;5111869;28;20055;-30
2022/04/17 03:52:42;;;;;;;6.57;3.78;;;;;;;6.57;82.08;103006.59;5110841;28;20054;-26
2022/04/17 03:55:12;;;;;;;4.88;3.50;;;;;;;6.56;81.91;103004.88;5112971;28;20039;-28
2022/04/17 03:57:40;;;;;;;5.60;3.65;;;;;;;6.54;82.57;103009.78;5112708;28;20515;-26
2022/04/17 04:00:10;;;;;;;5.45;3.67;;;;;;;6.53;82.71;103005.31;5111738;28;20063;-26
2022/04/17 04:02:41;;;;;;;6.45;3.90;;;;;;;6.52;82.35;103009.16;5112771;28;20054;-25
2022/04/17 04:05:10;;;;;;;6.90;4.32;;;;;;;6.52;82.70;103000.00;5112752;28;20054;-26
2022/04/17 04:07:38;;;;;;;5.50;3.75;;;;;;;6.51;82.51;103006.59;5111953;28;20055;-29
2022/04/17 04:10:09;;;;;;;5.78;3.78;;;;;;;6.49;82.81;103003.19;5112627;28;20405;-32
2022/04/17 04:12:39;;;;;;;7.25;4.10;;;;;;;6.48;82.93;103001.50;5112529;28;20093;-26
2022/04/17 04:15:08;;;;;;;6.43;4.45;;;;;;;6.46;83.38;103004.47;5111685;28;20040;-29
2022/04/17 04:17:36;;;;;;;6.55;4.68;;;;;;;6.45;83.12;103001.94;5112257;28;20043;-27
2022/04/17 04:20:05;;;;;;;5.38;3.67;;;;;;;6.45;83.23;103001.94;5112502;28;20480;-28
2022/04/17 04:22:33;;;;;;;7.15;4.28;;;;;;;6.44;82.85;102994.69;5111382;28;20047;-27
2022/04/17 04:25:01;;;;;;;6.60;5.05;;;;;;;6.42;82.88;102996.81;5110964;28;20061;-26
2022/04/17 04:30:15;;;;;;;6.00;3.80;;;;;;;6.42;83.51;102989.34;5090889;28;20404;-26
2022/04/17 04:32:53;;;;;;;7.28;4.50;;;;;;;6.44;83.14;102992.75;5111933;28;20467;-27
2022/04/17 04:35:21;;;;;;;6.15;4.05;;;;;;;6.42;82.93;102992.13;5111082;28;20115;-26
2022/04/17 04:37:49;;;;;;;7.35;4.82;;;;;;;6.40;83.01;102990.63;5111651;28;20043;-26
2022/04/17 04:40:18;;;;;;;6.63;4.63;;;;;;;6.36;83.47;102987.47;5112018;28;20055;-26
2022/04/17 04:42:47;;;;;;;6.40;4.30;;;;;;;6.35;83.92;102985.78;5107680;28;20044;-31
2022/04/17 04:48:00;;;;;;;6.40;3.95;;;;;;;6.31;83.91;102976.19;5112162;28;20161;-30
2022/04/17 04:50:28;;;;;;;7.40;5.00;;;;;;;6.32;83.61;102988.13;5111473;28;20118;-27
2022/04/17 04:52:56;;;;;;;5.80;4.00;;;;;;;6.31;83.79;102984.50;5110746;28;20039;-27
2022/04/17 04:55:23;;;;;;;5.90;4.28;;;;;;;6.30;83.37;102980.03;5112375;28;20043;-27
2022/04/17 04:57:53;;;;;;;7.90;4.93;;;;;;;6.30;83.97;102977.25;5111210;28;20047;-22
2022/04/17 05:00:21;;;;;;;9.82;5.00;;;;;;;6.30;84.35;102982.78;5111152;28;20047;-27
2022/04/17 05:02:48;;;;;;;6.35;5.22;;;;;;;6.31;83.88;102978.94;5111954;28;20349;-27
2022/04/17 05:05:16;;;;;;;7.13;4.95;;;;;;;6.33;83.74;102981.50;5110518;28;20389;-26
2022/04/17 05:07:44;;;;;;;6.07;4.47;;;;;;;6.34;83.59;102977.66;5109806;28;20058;-27
2022/04/17 05:10:12;;;;;;;7.63;5.07;;;;;;;6.33;83.60;102979.59;5107139;28;20120;-27
2022/04/17 05:12:39;;;;;;;6.18;4.38;;;;;;;6.34;83.67;102989.59;5110247;28;20047;-27
2022/04/17 05:15:11;;;;;;;6.38;4.60;;;;;;;6.36;83.56;102990.25;5110484;28;20043;-27
2022/04/17 05:17:39;;;;;;;8.00;5.33;;;;;;;6.37;83.55;102993.88;5109758;28;20146;-27
2022/04/17 05:20:08;;;;;;;7.25;4.47;;;;;;;6.38;83.61;102992.81;5110567;28;20059;-27
2022/04/17 05:22:36;;;;;;;6.68;4.82;;;;;;;6.38;83.50;102992.81;5110699;28;20073;-29
2022/04/17 05:25:03;;;;;;;9.25;4.95;;;;;;;6.39;83.57;102998.13;5109702;28;20054;-27
2022/04/17 05:27:31;;;;;;;7.47;5.15;;;;;;;6.39;83.96;102994.50;5110615;28;20047;-29
2022/04/17 05:29:59;;;;;;;7.45;5.43;;;;;;;6.40;83.65;102996.19;5110232;28;20488;-27
2022/04/17 05:32:29;;;;;;;6.97;5.20;;;;;;;6.40;83.99;102994.25;5107596;28;20509;-26
2022/04/17 05:34:56;;;;;;;8.13;5.32;;;;;;;6.40;84.39;102990.63;5099464;28;20485;-26
2022/04/17 05:37:24;;;;;;;7.22;5.32;;;;;;;6.41;83.77;102989.56;5114337;28;20039;-28
2022/04/17 05:39:52;;;;;;;8.00;5.03;;;;;;;6.42;84.09;102996.81;5113258;28;20449;-26
2022/04/17 05:42:19;;;;;;;8.07;5.15;;;;;;;6.43;84.29;102991.06;5102784;28;20073;-29
2022/04/17 05:44:48;;;;;;;8.00;5.60;;;;;;;6.44;84.66;102992.75;5114411;28;20071;-26
2022/04/17 05:47:16;;;;;;;6.88;5.00;;;;;;;6.46;84.29;102998.09;5113592;28;20060;-25
2022/04/17 05:49:45;;;;;;;5.45;4.35;;;;;;;6.50;84.02;102993.81;5113827;28;20047;-28
2022/04/17 05:52:13;;;;;;;10.15;5.50;;;;;;;6.52;84.11;102994.44;5113556;28;20050;-25
2022/04/17 05:54:43;;;;;;;8.43;5.90;;;;;;;6.55;84.27;102994.00;5113440;28;20043;-31
2022/04/17 05:57:11;;;;;;;9.68;5.90;;;;;;;6.58;84.04;103001.88;5113980;27;20050;-32
2022/04/17 05:59:39;;;;;;;8.07;5.50;;;;;;;6.62;83.84;102996.72;5113381;28;20059;-29
2022/04/17 06:02:06;;;;;;;8.60;5.90;;;;;;;6.67;83.58;102996.91;5114147;28;20049;-26
2022/04/17 06:04:38;;;;;;;8.82;6.10;;;;;;;6.71;83.76;103001.81;5113907;28;20485;-28
2022/04/17 06:07:08;;;;;;;8.60;5.78;;;;;;;6.77;83.15;102989.00;5112690;28;20067;-31
2022/04/17 06:09:36;;;;;;;8.32;5.30;;;;;;;6.82;83.10;102992.78;5113117;28;20058;-29
2022/04/17 06:12:05;;;;;;;8.75;5.20;;;;;;;6.88;83.44;102974.41;5112400;28;20079;-27
2022/04/17 06:14:32;;;;;;;9.48;6.07;;;;;;;6.94;83.37;102979.06;5112874;28;20047;-25
2022/04/17 06:17:00;;;;;;;9.20;6.50;;;;;;;7.00;83.37;102986.47;5112074;28;20047;-26
2022/04/17 06:19:28;;;;;;;9.55;6.50;;;;;;;7.07;83.20;102984.53;5113284;28;20450;-26
2022/04/17 06:21:55;;;;;;;8.18;5.32;;;;;;;7.13;83.51;102986.41;5112526;28;20405;-27
2022/04/17 06:24:24;;;;;;;7.93;5.80;;;;;;;7.19;83.41;102979.94;5113220;28;20046;-26
2022/04/17 06:26:52;;;;;;;8.00;5.53;;;;;;;7.24;83.52;102979.25;5113396;28;20047;-27
2022/04/17 06:29:20;;;;;;;8.68;5.90;;;;;;;7.31;83.62;102979.22;5112325;28;20040;-26
2022/04/17 06:31:47;;;;;;;7.63;5.75;;;;;;;7.40;83.54;102975.06;5100055;28;20154;-25
2022/04/17 06:34:15;;;;;;;8.27;5.55;;;;;;;7.48;83.53;102974.81;5113196;28;20039;-26
2022/04/17 06:36:43;;;;;;;11.40;6.68;;;;;;;7.57;83.46;102977.09;5112396;27;20047;-26
2022/04/17 06:39:11;;;;;;;8.25;6.65;;;;;;;7.68;81.65;102963.50;5113400;28;20047;-27
2022/04/17 06:41:40;;;;;;;10.07;6.63;;;;;;;7.81;80.54;102967.00;5112297;28;20058;-27
2022/04/17 06:44:11;;;;;;;8.32;6.00;;;;;;;7.95;78.87;102963.03;5113270;28;20039;-27
2022/04/17 06:46:39;;;;;;;10.30;6.20;;;;;;;8.17;78.44;102963.44;5111977;28;20051;-27
2022/04/17 06:49:07;;;;;;;8.98;5.88;;;;;;;8.47;76.83;102960.72;5107412;28;20071;-26
2022/04/17 06:51:35;;;;;;;9.60;6.18;;;;;;;8.84;74.88;102957.84;5112842;28;20047;-29
2022/04/17 06:54:05;;;;;;;8.02;5.50;;;;;;;9.27;73.15;102960.41;5112710;27;20051;-27
2022/04/17 06:56:33;;;;;;;8.77;6.18;;;;;;;9.76;70.62;102947.13;5111932;28;20054;-28
2022/04/17 06:59:05;;;;;;;8.20;5.88;;;;;;;10.11;67.57;102955.47;5112558;28;20051;-27
2022/04/17 07:01:33;;;;;;;8.80;5.85;;;;;;;10.35;65.48;102954.34;5112618;28;20055;-28
2022/04/17 07:04:01;;;;;;;7.93;5.82;;;;;;;10.58;62.83;102964.63;5112085;28;20419;-28
2022/04/17 07:06:29;;;;;;;8.18;5.22;;;;;;;10.81;61.49;102949.69;5112710;27;20051;-28
2022/04/17 07:08:56;;;;;;;8.05;5.60;;;;;;;11.12;61.77;102943.59;5112458;28;20047;-29
2022/04/17 07:11:25;;;;;;;7.30;5.65;;;;;;;11.45;59.58;102953.09;5111671;28;20122;-30
2022/04/17 07:13:53;;;;;;;9.88;6.03;;;;;;;11.64;57.58;102943.31;5112329;28;20050;-28
2022/04/17 07:16:22;;;;;;;8.55;5.32;;;;;;;11.97;58.12;102934.94;5112136;28;20493;-27
2022/04/17 07:18:50;;;;;;;6.68;5.13;;;;;;;12.46;53.13;102936.97;5111230;28;20048;-27
2022/04/17 07:21:17;;;;;;;7.03;5.22;;;;;;;12.82;54.14;102944.66;5112072;28;20050;-28
2022/04/17 07:23:47;;;;;;;8.20;5.35;;;;;;;13.15;52.26;102940.84;5111400;28;20039;-34
2022/04/17 07:26:15;;;;;;;7.53;5.05;;;;;;;13.37;50.57;102941.63;5112240;28;20043;-34
2022/04/17 07:28:46;;;;;;;6.68;5.05;;;;;;;13.52;50.05;102948.47;5101160;28;20409;-28
2022/04/17 07:31:14;;;;;;;6.22;4.97;;;;;;;13.52;48.88;102949.31;5109414;28;20155;-29
2022/04/17 07:33:43;;;;;;;7.53;5.00;;;;;;;13.35;47.27;102946.66;5112134;28;20373;-29
2022/04/17 07:36:11;;;;;;;6.28;4.80;;;;;;;13.51;48.92;102947.63;5112051;28;20515;-28
2022/04/17 07:38:38;;;;;;;7.10;4.88;;;;;;;13.67;47.21;102932.59;5111117;28;20142;-32
2022/04/17 07:41:06;;;;;;;6.60;4.72;;;;;;;13.84;46.71;102932.41;5112107;28;20051;-33
2022/04/17 07:43:34;;;;;;;6.95;4.40;;;;;;;13.88;44.75;102939.19;5111531;28;20047;-31
2022/04/17 07:46:02;;;;;;;6.40;4.70;;;;;;;13.81;44.92;102946.97;5111366;28;20078;-29
2022/04/17 07:48:30;;;;;;;6.50;4.68;;;;;;;13.71;45.99;102932.91;5111755;28;20488;-30
2022/04/17 07:51:00;;;;;;;6.50;4.80;;;;;;;13.87;45.86;102933.84;5111531;28;20389;-28
2022/04/17 07:53:27;;;;;;;6.82;4.82;;;;;;;14.10;44.16;102930.59;5110865;28;20078;-27
2022/04/17 07:55:56;;;;;;;6.65;4.50;;;;;;;14.16;44.29;102931.50;5109968;28;20044;-29
2022/04/17 07:58:33;;;;;;;6.38;4.30;;;;;;;14.40;44.92;102921.47;5110718;27;20055;-33
2022/04/17 08:01:10;;;;;;;5.35;4.18;;;;;;;14.81;44.21;102928.94;5110983;28;20460;-34
2022/04/17 08:03:46;;;;;;;5.68;4.40;;;;;;;15.04;42.72;102930.41;5111655;28;20130;-29
2022/04/17 08:06:21;;;;;;;6.45;4.03;;;;;;;15.22;42.45;102923.38;5109470;28;20127;-29
2022/04/17 08:08:51;;;;;;;6.88;4.18;;;;;;;15.33;42.22;102927.06;5111719;28;20102;-30
2022/04/17 08:11:19;;;;;;;6.50;4.00;;;;;;;15.38;42.22;102925.09;5110196;28;20142;-28
2022/04/17 08:13:47;;;;;;;6.18;4.25;;;;;;;15.57;41.48;102922.59;5108058;28;20062;-28
2022/04/17 08:16:16;;;;;;;6.28;4.18;;;;;;;15.61;40.90;102932.13;5110876;28;20054;-28
2022/04/17 08:18:44;;;;;;;6.72;4.30;;;;;;;15.68;41.23;102918.63;5110832;28;20071;-28
2022/04/17 08:21:11;;;;;;;5.50;4.03;;;;;;;15.79;41.14;102925.91;5110161;28;20055;-27
2022/04/17 08:23:42;;;;;;;5.47;3.80;;;;;;;15.96;41.35;102919.16;5111134;28;20039;-28
2022/04/17 08:26:09;;;;;;;4.90;3.63;;;;;;;16.30;40.59;102919.31;5109964;28;20035;-28
2022/04/17 08:28:37;;;;;;;6.90;4.25;;;;;;;16.54;39.80;102918.34;5109311;28;20047;-28
2022/04/17 08:31:06;;;;;;;4.13;3.38;;;;;;;16.73;39.51;102929.00;5108697;28;20039;-28
2022/04/17 08:33:34;;;;;;;6.00;3.90;;;;;;;16.95;39.17;102920.13;5110869;28;20043;-28
2022/04/17 08:36:01;;;;;;;5.68;3.75;;;;;;;17.28;37.50;102924.09;5110169;28;20040;-28
2022/04/17 08:38:29;;;;;;;6.70;4.13;;;;;;;17.37;38.26;102916.72;5111604;28;20085;-34
2022/04/17 08:41:02;;;;;;;5.47;3.80;;;;;;;17.38;38.18;102915.56;5109912;28;20188;-31
2022/04/17 08:43:31;;;;;;;4.93;3.50;;;;;;;17.60;38.20;102915.06;5112043;28;20489;-30
2022/04/17 08:45:59;;;;;;;4.55;3.35;;;;;;;17.84;38.06;102905.53;5112032;28;20514;-31
2022/04/17 08:48:28;;;;;;;4.18;3.55;;;;;;;18.21;37.38;102907.66;5111748;28;20048;-34
2022/04/17 08:50:56;;;;;;;4.57;3.45;;;;;;;18.39;36.84;102900.34;5111443;28;20055;-29
2022/04/17 08:53:26;;;;;;;4.72;3.95;;;;;;;18.23;36.15;102901.69;5110836;28;20493;-28
2022/04/17 08:55:54;;;;;;;6.35;3.58;;;;;;;18.08;36.88;102899.06;5110221;28;20032;-29
2022/04/17 08:58:24;;;;;;;5.40;4.00;;;;;;;18.07;35.81;102901.03;5111215;28;20040;-28
2022/04/17 09:00:52;;;;;;;6.38;3.80;;;;;;;18.14;37.06;102892.22;5112203;28;20054;-32
2022/04/17 09:03:20;;;;;;;5.78;3.90;;;;;;;18.35;36.89;102892.81;5111236;28;20043;-37
2022/04/17 09:05:48;;;;;;;5.28;3.70;;;;;;;18.53;36.28;102886.34;5112021;28;20087;-28
2022/04/17 09:08:18;;;;;;;5.50;3.47;;;;;;;18.89;36.68;102889.50;5111760;28;20055;-28
2022/04/17 09:10:56;;;;;;;4.93;3.15;;;;;;;19.28;34.93;102895.66;5114161;28;20054;-28
2022/04/17 09:13:30;;;;;;;6.45;3.50;;;;;;;19.34;34.71;102904.91;5116198;28;20484;-32
2022/04/17 09:15:59;;;;;;;5.28;3.30;;;;;;;19.03;35.58;102892.41;5116143;28;20070;-34
2022/04/17 09:18:31;;;;;;;5.68;3.90;;;;;;;19.13;34.77;102892.25;5115117;27;20054;-33
2022/04/17 09:21:01;;;;;;;5.10;4.00;;;;;;;19.19;35.09;102896.66;5109087;28;20039;-28
2022/04/17 09:23:36;;;;;;;5.20;3.53;;;;;;;19.32;34.99;102884.56;5115051;28;20052;-32
2022/04/17 09:26:05;;;;;;;3.90;3.08;;;;;;;19.54;35.01;102881.09;5108838;28;20039;-31
2022/04/17 09:28:36;;;;;;;5.85;3.78;;;;;;;19.87;34.35;102890.38;5115846;28;20076;-28
2022/04/17 09:31:10;;;;;;;4.63;3.28;;;;;;;19.65;34.23;102874.06;5114933;27;20050;-31
2022/04/17 09:33:40;;;;;;;4.97;3.42;;;;;;;19.44;33.56;102882.06;5115629;28;20050;-31
2022/04/17 09:36:09;;;;;;;5.10;3.58;;;;;;;19.36;34.54;102870.63;5115644;28;20051;-33
2022/04/17 09:38:42;;;;;;;4.95;3.80;;;;;;;19.33;35.21;102874.91;5114738;28;20043;-28
2022/04/17 09:41:13;;;;;;;5.28;3.47;;;;;;;19.25;34.52;102878.44;5115403;28;20074;-28
2022/04/17 09:43:44;;;;;;;;;;;;;;;19.09;33.11;102872.22;5115987;28;20450;-35
2022/04/17 09:46:13;;;;;;;4.10;3.33;;;;;;;19.21;34.23;102857.56;5114424;28;19920;-29
2022/04/17 09:48:44;;;;;;;5.50;3.53;;;;;;;19.25;34.34;102859.47;5115484;28;20043;-28
2022/04/17 09:51:23;;;;;;;4.90;3.70;;;;;;;19.05;32.52;102850.50;5115456;28;20059;-29
2022/04/17 09:53:59;;;;;;;5.85;3.45;;;;;;;19.16;33.56;102847.19;5115171;28;20507;-31
2022/04/17 09:56:31;;;;;;;5.35;4.10;;;;;;;19.27;31.82;102853.50;5114887;27;20051;-34
2022/04/17 09:59:01;;;;;;;5.70;3.65;;;;;;;19.54;33.91;102844.28;5114211;28;20047;-28
2022/04/17 10:01:29;;;;;;;4.43;3.50;;;;;;;19.89;34.08;102837.06;5115156;28;20040;-32
2022/04/17 10:03:59;;;;;;;5.57;3.60;;;;;;;19.73;33.94;102839.38;5114972;28;20047;-28
2022/04/17 10:06:28;;;;;;;5.15;3.75;;;;;;;19.57;32.82;102840.81;5114079;28;20051;-27
2022/04/17 10:08:58;;;;;;;5.30;3.75;;;;;;;19.51;33.06;102848.56;5114680;28;20134;-28
2022/04/17 10:11:26;;;;;;;4.93;3.80;;;;;;;19.37;32.96;102835.50;5115143;27;20405;-27
2022/04/17 10:13:54;;;;;;;5.32;4.00;;;;;;;19.19;33.10;102834.38;5113884;28;20055;-29
2022/04/17 10:16:25;;;;;;;4.15;3.38;;;;;;;19.06;33.17;102824.72;5114699;28;20051;-27
2022/04/17 10:18:53;;;;;;;5.43;3.72;;;;;;;19.26;33.10;102826.34;5114795;27;20083;-32
2022/04/17 10:21:25;;;;;;;5.30;3.55;;;;;;;19.31;32.69;102823.44;5113633;28;20334;-28
2022/04/17 10:24:00;;;;;;;4.65;3.40;;;;;;;19.28;32.63;102816.41;5114332;28;20048;-31
2022/04/17 10:26:32;;;;;;;5.00;3.58;;;;;;;19.46;33.69;102810.97;5111541;28;20055;-29
2022/04/17 10:29:04;;;;;;;7.05;3.65;;;;;;;19.60;32.14;102824.03;5114491;28;20047;-33
2022/04/17 10:31:45;;;;;;;5.55;3.25;;;;;;;19.48;32.16;102808.69;5115217;28;20049;-31
2022/04/17 10:34:58;;;;;;;3.83;3.22;;;;;;;19.47;29.64;102805.00;5113535;28;20463;-28
2022/04/17 10:37:50;;;;;;;4.70;3.40;;;;;;;19.51;29.89;102806.09;5094762;27;20078;-28
2022/04/17 10:40:18;;;;;;;4.70;3.25;;;;;;;19.54;30.62;102796.13;5102695;28;20054;-31
2022/04/17 10:42:56;;;;;;;4.47;3.25;;;;;;;19.63;29.90;102796.22;5113787;28;20050;-29
2022/04/17 10:45:25;;;;;;;4.75;3.25;;;;;;;19.67;30.58;102795.28;5104410;28;20031;-30
2022/04/17 10:48:10;;;;;;;6.00;3.33;;;;;;;19.63;29.23;102794.25;5113211;28;20469;-29
2022/04/17 10:50:44;;;;;;;5.40;3.17;;;;;;;19.61;30.24;102788.03;5104730;28;20057;-30
2022/04/17 10:53:23;;;;;;;5.60;2.92;;;;;;;19.58;27.44;102789.50;5114269;28;20040;-36
2022/04/17 10:56:05;;;;;;;4.78;2.75;;;;;;;19.73;29.46;102779.03;5113211;28;20047;-36
2022/04/17 10:58:37;;;;;;;4.03;2.75;;;;;;;19.74;29.76;102773.06;5113930;28;20511;-31
2022/04/17 11:01:05;;;;;;;5.18;2.47;;;;;;;19.79;29.12;102766.44;5113732;28;20040;-28
2022/04/17 11:03:36;;;;;;;3.30;2.20;;;;;;;19.93;28.40;102773.78;5113104;28;20055;-28
2022/04/17 11:06:30;;;;;;;3.22;2.20;;;;;;;20.03;25.97;102758.53;5114067;28;20397;-33
2022/04/17 11:09:05;;;;;;;5.40;2.85;;;;;;;19.94;26.39;102766.13;5113061;28;20059;-29
2022/04/17 11:11:36;;;;;;;3.20;2.30;;;;;;;19.94;27.82;102751.97;5113715;28;20054;-31
2022/04/17 11:14:12;;;;;;;3.28;2.20;;;;;;;20.05;25.25;102750.56;5113628;28;20036;-31
2022/04/17 11:16:42;;;;;;;3.13;2.28;;;;;;;19.99;26.43;102739.66;5112954;28;20142;-34
2022/04/17 11:19:14;;;;;;;3.47;2.20;;;;;;;20.11;26.47;102743.63;5113678;28;20138;-37
2022/04/17 11:21:43;;;;;;;;;;;;;;;20.14;25.08;102742.16;5113915;28;20185;-29
2022/04/17 11:24:11;;;;;;;3.28;2.25;;;;;;;20.12;26.18;102739.66;5112489;28;19924;-32
2022/04/17 11:27:13;;;;;;;3.03;2.15;;;;;;;20.10;22.42;102736.28;5113481;28;20142;-32
2022/04/17 11:29:44;;;;;;;3.63;2.20;;;;;;;19.94;24.80;102732.97;5113345;28;20117;-29
2022/04/17 11:32:50;;;;;;;3.45;2.00;;;;;;;20.06;24.76;102735.25;5113081;28;20052;-38
2022/04/17 11:35:24;;;;;;;2.83;2.10;;;;;;;20.09;24.90;102731.78;5113100;28;20100;-29
2022/04/17 11:38:03;;;;;;;3.20;2.50;;;;;;;20.13;24.23;102724.31;5112481;28;20083;-28
2022/04/17 11:40:33;;;;;;;3.28;2.30;;;;;;;20.21;25.13;102732.03;5112963;27;20054;-32
2022/04/17 11:43:07;;;;;;;3.38;2.20;;;;;;;20.34;25.79;102721.84;5113243;28;20055;-29
2022/04/17 11:45:34;;;;;;;4.05;2.47;;;;;;;20.48;25.70;102722.66;5112388;28;20044;-28
2022/04/17 11:48:08;;;;;;;4.30;2.30;;;;;;;20.36;24.74;102715.84;5113182;28;20054;-35
2022/04/17 11:50:37;;;;;;;4.95;2.40;;;;;;;20.29;25.26;102714.28;5113002;28;20476;-29
2022/04/17 11:53:07;;;;;;;5.65;2.53;;;;;;;20.16;24.63;102703.00;5111874;28;20062;-35
2022/04/17 11:55:36;;;;;;;3.42;2.05;;;;;;;20.22;24.60;102704.53;5112981;28;20054;-28